Ichinomiya, Japan
Current Conditions -  °F | °C
As of 2:00 PM on Thursday 23 Oct 2014 (Local Time) from RJGG Reporting Station
Broken Clouds Broken Clouds  
Wind Chill: 66°   Ceiling: 5000
Heat Index: 66°   Visibility: 6mi
Dew Point: 50°   Wind: 8mph
Humidity: 56%   Direction: 330°NNW
Pressure: 29.97"   Gusts: NA
Location:  35.3°N, 136.8°E
Report Text: RJGG 230500Z 33007KT 9999 FEW025 BKN050 19/10 Q1015 NOSIG
Loading
Personal Weather Stations






























Interactive Weather Map
Tropical Storm Tracking
New forecast layout! Learn more

10-Day Weather Forecast

Advertisements
Track Severe Weather on mobile